Latest Coastal Weather Observations for Flinders Island Airport

IDT60701

Issued at 1:11 pm EST Saturday 29 August 2015 (issued every 10 minutes, with the page automatically refreshed every 10 minutes)

About coastal observations | Map of coastal stations | Coastal observations for TAS | Marine services | Other Formats
Station Details ID: 099005 Name: FLINDERS ISLAND AIRPORT Lat: -40.09 Lon: 148.00 Height: 9.0 m
Data from the previous 72 hours. | See also: Recent months at Flinders Island Airport
Date/Time
EST
Temp

°C
Wind Pressure Rain
since 9am
mm
Weather Cloud Vis
km
Sea
Height
m
Swell
Dir
 
Speed
knots
Gust
knots
hPa Trend Height
m
Period
s
Dir
29/01:00pm 10.7 SW 22 27 1018.0 - 0.0 - Cloudy 10 - - - -
29/12:30pm 11.0 SW 23 29 1018.0 - 0.0 - Partly cloudy 10 - - - -
29/12:00pm 11.4 SW 22 29 1018.1 - 0.0 - Cloudy 10 - - - -
29/11:30am 10.4 SW 22 28 1018.5 - 0.0 - Cloudy 10 - - - -
29/11:00am 9.9 SW 20 26 1018.7 - 0.0 - Cloudy 10 - - - -
29/10:30am 9.8 SW 17 21 1018.5 - 0.0 - Cloudy 10 - - - -
29/10:00am 9.5 SW 18 20 1018.4 - 0.0 - Partly cloudy 10 - - - -
29/09:30am 9.9 SW 17 21 1018.6 - 0.0 - Partly cloudy 10 - - - -
29/09:00am 9.2 SSW 19 25 1018.5 - 0.6 - Cloudy 10 - - - -
29/08:30am 9.3 SSW 21 26 1018.1 - 0.6 - Partly cloudy 10 - - - -
29/08:00am 9.0 SW 20 25 1018.3 - 0.6 - Cloudy 10 - - - -
29/07:30am 9.2 SSW 19 25 1018.1 - 0.6 - Partly cloudy 10 - - - -
29/07:00am 8.3 SW 20 27 1017.8 - 0.6 - Partly cloudy 10 - - - -
29/06:30am 8.1 SSW 19 25 1017.7 - 0.6 - Partly cloudy 10 - - - -
29/06:00am 7.8 SW 21 27 1017.8 - 0.6 - Cloudy 10 - - - -
29/05:30am 8.2 SW 19 27 1017.5 - 0.6 - Partly cloudy 10 - - - -
29/05:00am 7.8 WSW 19 26 1017.7 - 0.6 - Partly cloudy 10 - - - -
29/04:30am 8.0 WSW 19 24 1017.9 - 0.6 - Partly cloudy 10 - - - -
29/04:00am 7.4 WSW 19 22 1018.2 - 0.6 - Partly cloudy 10 - - - -
29/03:30am 7.3 WSW 23 28 1018.7 - 0.6 - - 10 - - - -
29/03:00am 7.4 WSW 21 27 1019.2 - 0.6 - Mostly clear 10 - - - -
29/02:30am 7.4 WSW 22 27 1019.6 - 0.6 - - 10 - - - -
29/02:00am 7.5 WSW 19 23 1020.2 - 0.6 - - 10 - - - -
29/01:30am 8.0 SW 21 26 1020.8 - 0.6 - Partly cloudy 10 - - - -
29/01:00am 7.8 SW 19 24 1021.2 - 0.6 - - 10 - - - -
29/12:30am 7.8 SW 19 24 1021.5 - 0.6 - - 10 - - - -
29/12:00am 8.0 SW 17 22 1021.9 - 0.6 - - 10 - - - -
 
Date/Time
EST
Temp

°C
Wind Pressure Rain
since 9am
mm
Weather Cloud Vis
km
Sea
Height
m
Swell
Dir
 
Speed
knots
Gust
knots
hPa Trend Height
m
Period
s
Dir
28/11:30pm 7.9 SW 17 21 1022.2 - 0.6 - Partly cloudy 10 - - - -
28/11:15pm 8.2 SW 16 22 1022.3 - 0.6 - Partly cloudy 10 - - - -
28/11:00pm 7.7 SW 9 12 1022.5 - 0.6 - Partly cloudy 10 - - - -
28/10:30pm 7.3 SSW 12 16 1022.8 - 0.6 - Partly cloudy 10 - - - -
28/10:00pm 7.4 SSW 16 19 1023.1 - 0.6 - - 10 - - - -
28/09:30pm 7.2 SSW 17 21 1023.4 - 0.6 - Partly cloudy 10 - - - -
28/09:14pm 6.4 S 15 20 1023.5 - 0.6 - Partly cloudy 10 - - - -
28/09:00pm 4.1 E 4 6 1023.4 - 0.6 Recent precip. - 10 - - - -
28/08:30pm 3.9 NNE 2 4 1023.6 - 0.4 - Partly cloudy 10 - - - -
28/08:00pm 5.6 NE 4 4 1023.5 - 0.4 - Partly cloudy 10 - - - -
28/07:43pm 6.3 N 4 6 1023.4 - 0.4 - Partly cloudy 10 - - - -
28/07:41pm 6.4 NNE 3 5 1023.4 - 0.4 - Partly cloudy 10 - - - -
28/07:30pm 6.5 SSE 8 15 1023.7 - 0.4 - Partly cloudy 5 - - - -
28/07:28pm 6.5 S 10 18 1023.8 - 0.4 - Partly cloudy 5 - - - -
28/07:25pm 6.8 S 11 21 1023.9 - 0.4 - Partly cloudy 5 - - - -
28/07:18pm 7.1 SSE 7 21 1023.8 - 0.0 - Partly cloudy 10 - - - -
28/07:00pm 6.8 E 2 4 1023.4 - 0.0 - Partly cloudy 10 - - - -
28/06:30pm 6.9 NE 6 6 1023.1 - 0.0 - Partly cloudy 10 - - - -
28/06:00pm 6.6 ENE 5 5 1023.0 - 0.0 - Mostly clear 10 - - - -
28/05:30pm 8.5 ESE 3 8 1022.8 - 0.0 - Partly cloudy 10 - - - -
28/05:00pm 9.7 S 6 10 1022.6 - 0.0 - Partly cloudy 10 - - - -
28/04:30pm 10.4 S 8 12 1022.5 - 0.0 - Partly cloudy 10 - - - -
28/04:00pm 11.1 S 7 11 1022.6 - 0.0 - - 10 - - - -
28/03:30pm 11.4 SSW 12 15 1022.5 - 0.0 - - 10 - - - -
28/03:00pm 10.8 SSW 12 14 1022.5 - 0.0 - Cloudy 10 - - - -
28/02:30pm 10.7 S 11 15 1022.5 - 0.0 - Partly cloudy 10 - - - -
28/02:00pm 10.9 S 10 14 1022.4 - 0.0 - Partly cloudy 10 - - - -
28/01:30pm 10.9 S 11 16 1022.5 - 0.0 - Partly cloudy 10 - - - -
28/01:00pm 11.0 S 11 16 1022.8 - 0.0 - Partly cloudy 10 - - - -
28/12:30pm 10.9 S 13 18 1023.1 - 0.0 - Partly cloudy 10 - - - -
28/12:00pm 10.8 SSE 11 17 1023.3 - 0.0 - Cloudy 10 - - - -
28/11:30am 11.6 SSE 9 17 1023.3 - 0.0 - Partly cloudy 10 - - - -
28/11:00am 11.4 SSE 11 18 1023.4 - 0.0 - Partly cloudy 10 - - - -
28/10:30am 11.1 SSE 13 21 1023.4 - 0.0 - Partly cloudy 10 - - - -
28/10:00am 11.4 SSE 12 20 1023.3 - 0.0 - Partly cloudy 10 - - - -
28/09:30am 11.0 SSE 11 19 1023.2 - 0.0 - Partly cloudy 10 - - - -
28/09:00am 10.5 SSE 11 18 1023.1 - 1.6 - Partly cloudy 10 - - - -
28/08:30am 10.3 SE 9 15 1023.0 - 1.6 - Partly cloudy 10 - - - -
28/08:00am 9.8 SSE 8 12 1022.7 - 1.6 - Partly cloudy 10 - - - -
28/07:30am 9.7 S 10 17 1022.4 - 1.6 - Cloudy 10 - - - -
28/07:00am 9.3 SSE 5 10 1022.0 - 1.4 - Partly cloudy 10 - - - -
28/06:30am 9.5 SE 5 7 1021.7 - 1.4 - Partly cloudy 10 - - - -
28/06:00am 9.6 SE 6 10 1021.2 - 1.4 - Cloudy 10 - - - -
28/05:30am 9.6 SSE 7 12 1020.9 - 1.4 - Partly cloudy 10 - - - -
28/05:00am 10.1 SSE 6 8 1020.6 - 1.4 - Partly cloudy 10 - - - -
28/04:30am 9.9 S 10 15 1020.3 - 1.4 - Partly cloudy 10 - - - -
28/04:00am 10.2 S 10 14 1020.1 - 1.4 - Partly cloudy 10 - - - -
28/03:30am 10.3 S 10 16 1019.9 - 1.4 - Partly cloudy 10 - - - -
28/03:08am 10.3 SSE 9 16 1019.9 - 1.4 - Partly cloudy 10 - - - -
28/03:00am 10.3 SSE 10 16 1020.0 - 1.4 - Cloudy 10 - - - -
28/02:30am 10.4 S 11 17 1020.1 - 1.4 - Partly cloudy 10 - - - -
28/02:00am 10.4 SSE 11 16 1020.2 - 1.4 - Partly cloudy 10 - - - -
28/01:30am 10.5 SSE 9 17 1020.3 - 1.4 - Cloudy 10 - - - -
28/01:00am 10.4 SSE 8 16 1020.3 - 1.4 - Partly cloudy 10 - - - -
28/12:57am 10.5 SSE 9 16 1020.3 - 1.4 - Partly cloudy 10 - - - -
28/12:30am 10.8 SE 6 11 1020.3 - 0.6 - Partly cloudy 5 - - - -
28/12:00am 11.2 S 8 15 1020.1 - 0.6 - Cloudy 10 - - - -
 
Date/Time
EST
Temp

°C
Wind Pressure Rain
since 9am
mm
Weather Cloud Vis
km
Sea
Height
m
Swell
Dir
 
Speed
knots
Gust
knots
hPa Trend Height
m
Period
s
Dir
27/11:30pm 10.9 SSE 6 9 1020.2 - 0.6 - Partly cloudy 10 - - - -
27/11:00pm 11.3 S 9 14 1020.2 - 0.6 - Partly cloudy 10 - - - -
27/10:30pm 11.2 S 10 14 1020.2 - 0.6 - Partly cloudy 10 - - - -
27/10:13pm 10.9 S 7 9 1020.1 - 0.6 - Partly cloudy 10 - - - -
27/10:06pm 10.6 S 6 8 1020.2 - 0.6 - Partly cloudy 10 - - - -
27/10:00pm 10.3 S 5 7 1020.2 - 0.6 - Partly cloudy 10 - - - -
27/09:30pm 9.6 E 1 4 1020.4 - 0.6 - Partly cloudy 10 - - - -
27/09:00pm 9.1 CALM 0 4 1020.3 - 0.6 - Partly cloudy 10 - - - -
27/08:45pm 9.4 CALM 0 0 1020.3 - 0.6 - Partly cloudy 10 - - - -
27/08:30pm 9.3 CALM 0 2 1020.2 - 0.6 - Partly cloudy 10 - - - -
27/08:00pm 10.3 S 6 8 1020.0 - 0.6 - Partly cloudy 10 - - - -
27/07:30pm 10.5 S 8 13 1019.9 - 0.6 - Partly cloudy 10 - - - -
27/07:10pm 10.4 SSE 1 4 1019.8 - 0.6 - Partly cloudy 10 - - - -
27/07:00pm 10.5 SSE 1 5 1019.8 - 0.6 - Partly cloudy 10 - - - -
27/06:49pm 10.2 SE 2 5 1019.8 - 0.6 - Partly cloudy 10 - - - -
27/06:30pm 10.4 SSE 2 5 1019.5 - 0.6 - Partly cloudy 10 - - - -
27/06:00pm 10.7 E 3 5 1019.2 - 0.6 - - 10 - - - -
27/05:30pm 11.9 E 4 6 1018.9 - 0.6 - - 10 - - - -
27/05:00pm 12.6 E 5 7 1018.6 - 0.6 - - 10 - - - -
27/04:30pm 13.1 ESE 6 9 1018.4 - 0.6 - - 10 - - - -
27/04:00pm 12.8 ESE 5 8 1018.3 - 0.6 - Partly cloudy 10 - - - -
27/03:51pm 12.7 E 6 9 1018.4 - 0.6 - Partly cloudy 10 - - - -
27/03:34pm 12.9 E 8 15 1018.5 - 0.6 - Partly cloudy 5 - - - -
27/03:30pm 13.5 ESE 5 14 1018.4 - 0.6 - Partly cloudy 10 - - - -
27/03:29pm 13.5 ESE 5 14 1018.4 - 0.6 - Partly cloudy 10 - - - -
27/03:14pm 14.5 SSE 7 13 1018.3 - 0.6 - Partly cloudy 10 - - - -
27/03:00pm 14.1 SE 6 11 1018.4 - 0.6 - Cloudy 10 - - - -
27/02:30pm 13.9 ESE 7 10 1018.7 - 0.6 - Partly cloudy 10 - - - -
27/02:12pm 13.7 ESE 7 12 1018.8 - 0.6 - Partly cloudy 10 - - - -
27/02:00pm 13.8 ESE 7 12 1018.7 - 0.6 - Partly cloudy 10 - - - -
27/01:30pm 12.7 SSE 8 12 1019.0 - 0.6 - Partly cloudy 6 - - - -
27/01:00pm 13.3 S 10 14 1019.3 - 0.0 - Partly cloudy 10 - - - -
27/12:53pm 13.1 S 10 14 1019.4 - 0.0 - Partly cloudy 10 - - - -
27/12:30pm 14.3 SSW 9 10 1019.6 - 0.0 - Partly cloudy 10 - - - -
27/12:02pm 13.3 SSW 7 10 1020.3 - 0.0 - Partly cloudy 10 - - - -
27/12:00pm 13.4 SSW 8 10 1020.3 - 0.0 - Cloudy 10 - - - -
27/11:30am 13.2 SSW 8 10 1020.8 - 0.0 - Partly cloudy 10 - - - -
27/11:00am 13.2 SSW 9 12 1021.2 - 0.0 - Partly cloudy 10 - - - -
27/10:30am 12.8 S 6 7 1021.4 - 0.0 - Partly cloudy 10 - - - -
27/10:00am 13.1 SW 5 7 1021.5 - 0.0 - Partly cloudy 10 - - - -
27/09:30am 13.0 SW 5 6 1021.9 - 0.0 - Partly cloudy 10 - - - -
27/09:00am 12.8 ESE 5 7 1022.2 - 0.0 - Cloudy 10 - - - -
27/08:30am 12.8 ESE 6 8 1022.2 - 0.0 - Partly cloudy 10 - - - -
27/08:26am 12.6 ESE 6 8 1022.2 - 0.0 - Partly cloudy 10 - - - -
27/08:00am 12.1 ESE 6 8 1022.1 - 0.0 - Partly cloudy 10 - - - -
27/07:30am 11.3 ESE 5 8 1021.8 - 0.0 - Cloudy 10 - - - -
27/07:00am 11.0 ESE 5 7 1021.6 - 0.0 - Partly cloudy 10 - - - -
27/06:30am 11.1 SE 5 6 1021.6 - 0.0 - Cloudy 10 - - - -
27/06:00am 11.0 SE 5 6 1021.6 - 0.0 - Cloudy 10 - - - -
27/05:30am 10.7 ESE 5 6 1021.8 - 0.0 - Cloudy 10 - - - -
27/05:00am 10.4 ESE 4 5 1021.8 - 0.0 - Partly cloudy 10 - - - -
27/04:30am 10.0 ESE 4 5 1022.0 - 0.0 - Partly cloudy 10 - - - -
27/04:00am 8.7 CALM 0 0 1022.2 - 0.0 - Partly cloudy 10 - - - -
27/03:30am 8.7 ESE 2 5 1022.5 - 0.0 - Partly cloudy 10 - - - -
27/03:00am 8.8 CALM 0 0 1022.8 - 0.0 - Cloudy 10 - - - -
27/02:30am 8.9 CALM 0 0 1023.2 - 0.0 - Cloudy 10 - - - -
27/02:00am 8.8 CALM 0 0 1023.7 - 0.0 - Partly cloudy 10 - - - -
27/01:30am 8.7 CALM 0 0 1024.1 - 0.0 - Partly cloudy 10 - - - -
27/01:00am 8.6 CALM 0 0 1024.5 - 0.0 - Partly cloudy 10 - - - -
27/12:30am 8.7 CALM 0 0 1024.7 - 0.0 - Partly cloudy 10 - - - -
27/12:00am 8.9 CALM 0 0 1024.9 - 0.0 - Cloudy 10 - - - -
 
Date/Time
EST
Temp

°C
Wind Pressure Rain
since 9am
mm
Weather Cloud Vis
km
Sea
Height
m
Swell
Dir
 
Speed
knots
Gust
knots
hPa Trend Height
m
Period
s
Dir
26/11:30pm 9.3 CALM 0 0 1025.1 - 0.0 - Cloudy 10 - - - -
26/11:00pm 9.2 CALM 0 0 1025.4 - 0.0 - Partly cloudy 10 - - - -
26/10:30pm 10.1 ESE 3 5 1025.8 - 0.0 - - 10 - - - -
26/10:00pm 11.3 E 7 10 1025.9 - 0.0 - - 10 - - - -
26/09:30pm 11.3 E 6 10 1026.0 - 0.0 - Partly cloudy 10 - - - -
26/09:00pm 11.3 E 7 9 1026.2 - 0.0 - Cloudy 10 - - - -
26/08:30pm 11.3 E 6 8 1026.5 - 0.0 - Partly cloudy 10 - - - -
26/08:00pm 10.5 ENE 3 5 1026.6 - 0.0 - Partly cloudy 10 - - - -
26/07:30pm 9.5 E 5 6 1026.6 - 0.0 - Partly cloudy 10 - - - -
26/07:00pm 9.6 ENE 5 7 1026.7 - 0.0 - - 10 - - - -
26/06:30pm 10.3 E 7 8 1026.6 - 0.0 - Partly cloudy 10 - - - -
26/06:00pm 10.9 E 6 8 1026.6 - 0.0 - Partly cloudy 10 - - - -
26/05:30pm 11.9 E 7 9 1026.4 - 0.0 - Partly cloudy 10 - - - -
26/05:00pm 11.9 ENE 7 9 1026.5 - 0.0 - - 10 - - - -
26/04:30pm 12.4 E 8 12 1026.4 - 0.0 - Partly cloudy 10 - - - -
26/04:10pm 11.8 E 7 10 1026.5 - 0.0 - Partly cloudy 10 - - - -
26/04:00pm 11.7 E 8 13 1026.7 - 0.0 - Partly cloudy 5 - - - -
26/03:53pm 11.8 E 11 17 1026.7 - 0.0 - Partly cloudy 5 - - - -
26/03:30pm 12.9 ENE 11 19 1026.6 - 0.0 - Partly cloudy 10 - - - -
26/03:00pm 14.8 NE 11 15 1026.5 - 0.0 - Partly cloudy 10 - - - -
26/02:30pm 14.3 ENE 8 13 1026.9 - 0.0 - Partly cloudy 10 - - - -
26/02:00pm 13.7 E 10 15 1027.2 - 0.0 - Partly cloudy 10 - - - -
26/01:30pm 14.0 ENE 8 14 1027.5 - 0.0 - Partly cloudy 10 - - - -

Other Formats:

Comma delimited format used in spreadsheet applications
http://www.bom.gov.au/fwo/IDT60701/IDT60701.94980.axf

JavaScript Object Notation format (JSON) in row-major order
http://www.bom.gov.au/fwo/IDT60701/IDT60701.94980.json